sensor_id;sensor_type;location;lat;lon;timestamp;pressure;altitude;pressure_sealevel;temperature;humidity
31337;BME280;22846;42.654;23.314;2023-05-19T00:01:12;94733.16;;;23.93;61.15
31337;BME280;22846;42.654;23.314;2023-05-19T00:03:51;94730.06;;;23.92;61.55
31337;BME280;22846;42.654;23.314;2023-05-19T00:06:22;94728.88;;;23.92;61.45
31337;BME280;22846;42.654;23.314;2023-05-19T00:08:49;94721.47;;;23.93;61.07
31337;BME280;22846;42.654;23.314;2023-05-19T00:11:15;94734.34;;;23.92;61.08
31337;BME280;22846;42.654;23.314;2023-05-19T00:13:40;94725.41;;;23.92;61.34
31337;BME280;22846;42.654;23.314;2023-05-19T00:16:06;94724.63;;;23.92;61.05
31337;BME280;22846;42.654;23.314;2023-05-19T00:18:32;94730.06;;;23.92;61.53
31337;BME280;22846;42.654;23.314;2023-05-19T00:20:58;94719.16;;;23.92;61.53
31337;BME280;22846;42.654;23.314;2023-05-19T00:23:24;94718.41;;;23.91;61.63
31337;BME280;22846;42.654;23.314;2023-05-19T00:25:51;94712.16;;;23.91;61.17
31337;BME280;22846;42.654;23.314;2023-05-19T00:28:18;94714.13;;;23.90;61.12
31337;BME280;22846;42.654;23.314;2023-05-19T00:30:43;94711.84;;;23.89;61.14
31337;BME280;22846;42.654;23.314;2023-05-19T00:33:09;94711.41;;;23.90;61.48
31337;BME280;22846;42.654;23.314;2023-05-19T00:35:34;94707.91;;;23.90;61.43
31337;BME280;22846;42.654;23.314;2023-05-19T00:37:59;94706.38;;;23.89;61.24
31337;BME280;22846;42.654;23.314;2023-05-19T00:40:25;94707.16;;;23.89;61.22
31337;BME280;22846;42.654;23.314;2023-05-19T00:42:51;94708.34;;;23.88;61.64
31337;BME280;22846;42.654;23.314;2023-05-19T00:45:16;94704.84;;;23.88;61.56
31337;BME280;22846;42.654;23.314;2023-05-19T00:47:42;94711.06;;;23.88;61.31
31337;BME280;22846;42.654;23.314;2023-05-19T00:50:08;94698.63;;;23.87;61.53
31337;BME280;22846;42.654;23.314;2023-05-19T00:52:33;94702.13;;;23.88;61.51
31337;BME280;22846;42.654;23.314;2023-05-19T00:54:59;94697.88;;;23.87;60.92
31337;BME280;22846;42.654;23.314;2023-05-19T00:57:24;94695.88;;;23.87;61.49
31337;BME280;22846;42.654;23.314;2023-05-19T00:59:51;94695.13;;;23.87;61.36
31337;BME280;22846;42.654;23.314;2023-05-19T01:02:16;94702.53;;;23.86;61.31
31337;BME280;22846;42.654;23.314;2023-05-19T01:04:42;94689.78;;;23.83;61.07
31337;BME280;22846;42.654;23.314;2023-05-19T01:07:08;94701.78;;;23.86;61.50
31337;BME280;22846;42.654;23.314;2023-05-19T01:09:36;94703.31;;;23.87;60.89
31337;BME280;22846;42.654;23.314;2023-05-19T01:12:02;94701.78;;;23.86;61.26
31337;BME280;22846;42.654;23.314;2023-05-19T01:14:28;94702.97;;;23.85;61.34
31337;BME280;22846;42.654;23.314;2023-05-19T01:16:58;94709.97;;;23.86;61.05
31337;BME280;22846;42.654;23.314;2023-05-19T01:25:36;94709.63;;;23.84;61.15
31337;BME280;22846;42.654;23.314;2023-05-19T01:30:52;94706.25;;;23.80;61.24
31337;BME280;22846;42.654;23.314;2023-05-19T01:33:20;94710.50;;;23.81;61.03
31337;BME280;22846;42.654;23.314;2023-05-19T01:35:47;94707.34;;;23.82;61.38
31337;BME280;22846;42.654;23.314;2023-05-19T01:38:15;94703.81;;;23.82;60.97
31337;BME280;22846;42.654;23.314;2023-05-19T01:40:42;94704.63;;;23.82;61.04
31337;BME280;22846;42.654;23.314;2023-05-19T01:43:10;94689.53;;;23.78;61.27
31337;BME280;22846;42.654;23.314;2023-05-19T01:45:37;94701.53;;;23.80;61.00
31337;BME280;22846;42.654;23.314;2023-05-19T01:48:03;94707.78;;;23.81;61.00
31337;BME280;22846;42.654;23.314;2023-05-19T01:50:29;94714.00;;;23.81;61.11
31337;BME280;22846;42.654;23.314;2023-05-19T01:52:55;94715.97;;;23.81;61.28
31337;BME280;22846;42.654;23.314;2023-05-19T01:55:21;94706.75;;;23.75;61.11
31337;BME280;22846;42.654;23.314;2023-05-19T02:05:43;94714.09;;;23.78;61.09
31337;BME280;22846;42.654;23.314;2023-05-19T02:08:19;94710.59;;;23.77;61.08
31337;BME280;22846;42.654;23.314;2023-05-19T02:10:54;94713.75;;;23.76;61.41
31337;BME280;22846;42.654;23.314;2023-05-19T02:13:25;94712.63;;;23.73;60.82
31337;BME280;22846;42.654;23.314;2023-05-19T02:15:57;94717.25;;;23.76;61.12
31337;BME280;22846;42.654;23.314;2023-05-19T02:18:27;94724.22;;;23.77;60.90
31337;BME280;22846;42.654;23.314;2023-05-19T02:20:54;94720.00;;;23.76;61.41
31337;BME280;22846;42.654;23.314;2023-05-19T02:23:19;94725.84;;;23.75;61.47
31337;BME280;22846;42.654;23.314;2023-05-19T02:25:45;94720.00;;;23.76;61.19
31337;BME280;22846;42.654;23.314;2023-05-19T02:28:10;94721.94;;;23.76;60.96
31337;BME280;22846;42.654;23.314;2023-05-19T02:30:35;94717.66;;;23.75;60.99
31337;BME280;22846;42.654;23.314;2023-05-19T02:33:01;94715.72;;;23.75;60.79
31337;BME280;22846;42.654;23.314;2023-05-19T02:35:26;94725.84;;;23.75;61.20
31337;BME280;22846;42.654;23.314;2023-05-19T02:37:52;94723.13;;;23.75;60.70
31337;BME280;22846;42.654;23.314;2023-05-19T02:40:18;94727.03;;;23.74;60.82
31337;BME280;22846;42.654;23.314;2023-05-19T02:42:43;94730.13;;;23.76;60.96
31337;BME280;22846;42.654;23.314;2023-05-19T02:45:09;94725.84;;;23.75;61.24
31337;BME280;22846;42.654;23.314;2023-05-19T02:47:35;94728.59;;;23.75;60.88
31337;BME280;22846;42.654;23.314;2023-05-19T02:50:00;94722.38;;;23.74;60.80
31337;BME280;22846;42.654;23.314;2023-05-19T02:52:25;94730.56;;;23.74;61.24
31337;BME280;22846;42.654;23.314;2023-05-19T02:54:51;94729.00;;;23.73;61.03
31337;BME280;22846;42.654;23.314;2023-05-19T02:57:16;94727.03;;;23.74;60.94
31337;BME280;22846;42.654;23.314;2023-05-19T02:59:42;94731.38;;;23.71;60.99
31337;BME280;22846;42.654;23.314;2023-05-19T03:02:07;94737.19;;;23.73;60.64
31337;BME280;22846;42.654;23.314;2023-05-19T03:04:32;94729.44;;;23.72;60.94
31337;BME280;22846;42.654;23.314;2023-05-19T03:07:06;94730.94;;;23.73;60.66
31337;BME280;22846;42.654;23.314;2023-05-19T03:09:34;94739.13;;;23.73;60.63
31337;BME280;22846;42.654;23.314;2023-05-19T03:12:01;94732.16;;;23.72;60.59
31337;BME280;22846;42.654;23.314;2023-05-19T03:14:28;94742.28;;;23.71;60.49
31337;BME280;22846;42.654;23.314;2023-05-19T03:16:54;94730.63;;;23.71;60.62
31337;BME280;22846;42.654;23.314;2023-05-19T03:19:20;94738.38;;;23.72;60.95
31337;BME280;22846;42.654;23.314;2023-05-19T03:21:45;94738.81;;;23.71;60.79
31337;BME280;22846;42.654;23.314;2023-05-19T03:24:12;94734.91;;;23.72;60.94
31337;BME280;22846;42.654;23.314;2023-05-19T03:26:38;94743.06;;;23.72;60.59
31337;BME280;22846;42.654;23.314;2023-05-19T03:29:03;94734.13;;;23.71;60.55
31337;BME280;22846;42.654;23.314;2023-05-19T03:31:29;94744.28;;;23.71;60.48
31337;BME280;22846;42.654;23.314;2023-05-19T03:33:55;94733.34;;;23.71;61.01
31337;BME280;22846;42.654;23.314;2023-05-19T03:36:22;94745.47;;;23.70;60.85
31337;BME280;22846;42.654;23.314;2023-05-19T03:38:48;94745.47;;;23.70;60.40
31337;BME280;22846;42.654;23.314;2023-05-19T03:41:13;94744.28;;;23.71;60.37
31337;BME280;22846;42.654;23.314;2023-05-19T03:43:39;94742.28;;;23.71;60.40
31337;BME280;22846;42.654;23.314;2023-05-19T03:46:04;94735.75;;;23.69;60.92
31337;BME280;22846;42.654;23.314;2023-05-19T03:48:30;94733.88;;;23.66;60.47
31337;BME280;22846;42.654;23.314;2023-05-19T03:50:55;94740.75;;;23.70;60.80
31337;BME280;22846;42.654;23.314;2023-05-19T03:53:22;94743.50;;;23.70;60.42
31337;BME280;22846;42.654;23.314;2023-05-19T03:55:48;94750.91;;;23.70;60.38
31337;BME280;22846;42.654;23.314;2023-05-19T03:58:14;94751.66;;;23.70;60.22
31337;BME280;22846;42.654;23.314;2023-05-19T04:00:40;94739.56;;;23.71;60.58
31337;BME280;22846;42.654;23.314;2023-05-19T04:03:05;94742.72;;;23.70;60.21
31337;BME280;22846;42.654;23.314;2023-05-19T04:05:32;94747.00;;;23.71;60.35
31337;BME280;22846;42.654;23.314;2023-05-19T04:07:57;94757.91;;;23.71;60.18
31337;BME280;22846;42.654;23.314;2023-05-19T04:10:22;94752.47;;;23.71;60.42
31337;BME280;22846;42.654;23.314;2023-05-19T04:12:48;94749.28;;;23.72;60.11
31337;BME280;22846;42.654;23.314;2023-05-19T04:15:14;94753.22;;;23.71;60.54
31337;BME280;22846;42.654;23.314;2023-05-19T04:17:39;94758.66;;;23.71;59.72
31337;BME280;22846;42.654;23.314;2023-05-19T04:20:05;94757.91;;;23.71;60.31
31337;BME280;22846;42.654;23.314;2023-05-19T04:22:31;94759.44;;;23.72;59.99
31337;BME280;22846;42.654;23.314;2023-05-19T04:24:57;94758.66;;;23.71;60.10
31337;BME280;22846;42.654;23.314;2023-05-19T04:27:22;94764.91;;;23.72;60.29
31337;BME280;22846;42.654;23.314;2023-05-19T04:29:48;94765.22;;;23.74;60.78
31337;BME280;22846;42.654;23.314;2023-05-19T04:32:14;94761.06;;;23.69;60.63
31337;BME280;22846;42.654;23.314;2023-05-19T04:34:42;94768.75;;;23.74;60.96
31337;BME280;22846;42.654;23.314;2023-05-19T04:37:10;94768.75;;;23.74;60.79
31337;BME280;22846;42.654;23.314;2023-05-19T04:39:36;94774.97;;;23.75;60.13
31337;BME280;22846;42.654;23.314;2023-05-19T04:42:07;94778.50;;;23.75;60.56
31337;BME280;22846;42.654;23.314;2023-05-19T04:44:34;94776.06;;;23.77;60.43
31337;BME280;22846;42.654;23.314;2023-05-19T04:47:00;94777.97;;;23.80;60.38
31337;BME280;22846;42.654;23.314;2023-05-19T04:49:25;94760.38;;;23.81;59.10
31337;BME280;22846;42.654;23.314;2023-05-19T04:51:51;94769.00;;;23.80;59.08
31337;BME280;22846;42.654;23.314;2023-05-19T04:54:17;94767.81;;;23.81;60.40
31337;BME280;22846;42.654;23.314;2023-05-19T04:56:42;94782.88;;;23.85;60.14
31337;BME280;22846;42.654;23.314;2023-05-19T04:59:08;94778.22;;;23.86;60.35
31337;BME280;22846;42.654;23.314;2023-05-19T05:01:34;94777.00;;;23.87;60.23
31337;BME280;22846;42.654;23.314;2023-05-19T05:04:04;94782.13;;;23.85;60.15
31337;BME280;22846;42.654;23.314;2023-05-19T05:06:30;94782.03;;;23.88;60.18
31337;BME280;22846;42.654;23.314;2023-05-19T05:08:56;94775.47;;;23.86;60.10
31337;BME280;22846;42.654;23.314;2023-05-19T05:11:21;94771.91;;;23.89;60.62
31337;BME280;22846;42.654;23.314;2023-05-19T05:13:47;94769.91;;;23.89;60.63
31337;BME280;22846;42.654;23.314;2023-05-19T05:16:13;94770.69;;;23.90;60.71
31337;BME280;22846;42.654;23.314;2023-05-19T05:18:39;94772.22;;;23.91;60.60
31337;BME280;22846;42.654;23.314;2023-05-19T05:21:05;94774.19;;;23.90;60.90
31337;BME280;22846;42.654;23.314;2023-05-19T05:23:31;94771.13;;;23.88;60.61
31337;BME280;22846;42.654;23.314;2023-05-19T05:25:57;94776.47;;;23.92;60.86
31337;BME280;22846;42.654;23.314;2023-05-19T05:28:22;94768.28;;;23.92;60.86
31337;BME280;22846;42.654;23.314;2023-05-19T05:30:48;94766.44;;;23.89;60.87
31337;BME280;22846;42.654;23.314;2023-05-19T05:33:14;94776.81;;;23.93;60.81
31337;BME280;22846;42.654;23.314;2023-05-19T05:35:40;94781.09;;;23.94;60.39
31337;BME280;22846;42.654;23.314;2023-05-19T05:38:06;94774.84;;;23.94;60.65
31337;BME280;22846;42.654;23.314;2023-05-19T05:40:32;94772.56;;;23.92;60.53
31337;BME280;22846;42.654;23.314;2023-05-19T05:42:57;94779.00;;;23.98;60.51
31337;BME280;22846;42.654;23.314;2023-05-19T05:45:24;94776.28;;;23.98;60.80
31337;BME280;22846;42.654;23.314;2023-05-19T05:47:50;94776.28;;;23.98;60.41
31337;BME280;22846;42.654;23.314;2023-05-19T05:50:16;94787.53;;;24.00;60.67
31337;BME280;22846;42.654;23.314;2023-05-19T05:52:45;94782.88;;;24.01;60.62
31337;BME280;22846;42.654;23.314;2023-05-19T05:55:11;94778.16;;;24.01;60.22
31337;BME280;22846;42.654;23.314;2023-05-19T05:57:37;94782.44;;;24.02;60.31
31337;BME280;22846;42.654;23.314;2023-05-19T06:00:03;94791.38;;;24.03;60.17
31337;BME280;22846;42.654;23.314;2023-05-19T06:02:34;94804.59;;;24.04;60.07
31337;BME280;22846;42.654;23.314;2023-05-19T06:05:00;94797.19;;;24.05;60.09
31337;BME280;22846;42.654;23.314;2023-05-19T06:07:26;94803.06;;;24.03;60.35
31337;BME280;22846;42.654;23.314;2023-05-19T06:09:52;94807.69;;;24.06;60.43
31337;BME280;22846;42.654;23.314;2023-05-19T06:12:17;94809.97;;;24.08;59.84
31337;BME280;22846;42.654;23.314;2023-05-19T06:14:42;94811.91;;;24.07;60.13
31337;BME280;22846;42.654;23.314;2023-05-19T06:17:08;94812.25;;;24.09;59.78
31337;BME280;22846;42.654;23.314;2023-05-19T06:19:33;94801.34;;;24.09;60.20
31337;BME280;22846;42.654;23.314;2023-05-19T06:21:59;94800.16;;;24.10;60.01
31337;BME280;22846;42.654;23.314;2023-05-19T06:24:24;94804.41;;;24.11;59.34
31337;BME280;22846;42.654;23.314;2023-05-19T06:26:49;94806.72;;;24.13;60.03
31337;BME280;22846;42.654;23.314;2023-05-19T06:29:15;94802.03;;;24.13;59.54
31337;BME280;22846;42.654;23.314;2023-05-19T06:31:41;94808.25;;;24.14;59.70
31337;BME280;22846;42.654;23.314;2023-05-19T06:34:06;94802.34;;;24.15;59.37
31337;BME280;22846;42.654;23.314;2023-05-19T06:36:34;94812.06;;;24.16;59.67
31337;BME280;22846;42.654;23.314;2023-05-19T06:38:59;94808.16;;;24.17;59.32
31337;BME280;22846;42.654;23.314;2023-05-19T06:41:25;94803.88;;;24.16;59.68
31337;BME280;22846;42.654;23.314;2023-05-19T06:43:51;94807.72;;;24.19;59.55
31337;BME280;22846;42.654;23.314;2023-05-19T06:46:16;94799.53;;;24.19;59.44
31337;BME280;22846;42.654;23.314;2023-05-19T06:48:41;94814.28;;;24.21;59.56
31337;BME280;22846;42.654;23.314;2023-05-19T06:51:07;94808.03;;;24.21;59.47
31337;BME280;22846;42.654;23.314;2023-05-19T06:53:34;94808.38;;;24.23;59.48
31337;BME280;22846;42.654;23.314;2023-05-19T06:55:59;94811.56;;;24.21;59.43
31337;BME280;22846;42.654;23.314;2023-05-19T06:58:25;94809.16;;;24.23;59.51
31337;BME280;22846;42.654;23.314;2023-05-19T07:00:50;94818.88;;;24.24;59.55
31337;BME280;22846;42.654;23.314;2023-05-19T07:03:16;94813.41;;;24.24;58.95
31337;BME280;22846;42.654;23.314;2023-05-19T07:05:41;94822.72;;;24.27;59.47
31337;BME280;22846;42.654;23.314;2023-05-19T07:08:07;94820.00;;;24.27;59.32
31337;BME280;22846;42.654;23.314;2023-05-19T07:10:32;94819.56;;;24.28;58.96
31337;BME280;22846;42.654;23.314;2023-05-19T07:12:58;94822.28;;;24.28;59.36
31337;BME280;22846;42.654;23.314;2023-05-19T07:15:23;94825.00;;;24.28;59.26
31337;BME280;22846;42.654;23.314;2023-05-19T07:17:48;94823.81;;;24.29;59.01
31337;BME280;22846;42.654;23.314;2023-05-19T07:20:14;94832.03;;;24.29;59.38
31337;BME280;22846;42.654;23.314;2023-05-19T07:22:39;94828.84;;;24.31;59.48
31337;BME280;22846;42.654;23.314;2023-05-19T07:25:08;94832.03;;;24.29;59.16
31337;BME280;22846;42.654;23.314;2023-05-19T07:27:33;94834.31;;;24.31;59.06
31337;BME280;22846;42.654;23.314;2023-05-19T07:29:59;94831.56;;;24.31;59.33
31337;BME280;22846;42.654;23.314;2023-05-19T07:32:24;94831.56;;;24.31;59.60
31337;BME280;22846;42.654;23.314;2023-05-19T07:34:50;94826.91;;;24.31;59.62
31337;BME280;22846;42.654;23.314;2023-05-19T07:37:16;94824.91;;;24.32;59.63
31337;BME280;22846;42.654;23.314;2023-05-19T07:39:41;94830.38;;;24.32;59.63
31337;BME280;22846;42.654;23.314;2023-05-19T07:42:07;94825.69;;;24.32;59.27
31337;BME280;22846;42.654;23.314;2023-05-19T07:44:32;94822.97;;;24.32;59.23
31337;BME280;22846;42.654;23.314;2023-05-19T07:46:59;94826.47;;;24.33;59.63
31337;BME280;22846;42.654;23.314;2023-05-19T07:49:24;94829.94;;;24.33;59.55
31337;BME280;22846;42.654;23.314;2023-05-19T07:51:50;94824.47;;;24.33;59.46
31337;BME280;22846;42.654;23.314;2023-05-19T07:54:15;94830.72;;;24.34;59.53
31337;BME280;22846;42.654;23.314;2023-05-19T07:56:41;94835.75;;;24.35;59.47
31337;BME280;22846;42.654;23.314;2023-05-19T07:59:06;94824.81;;;24.35;59.66
31337;BME280;22846;42.654;23.314;2023-05-19T08:01:32;94830.28;;;24.35;59.56
31337;BME280;22846;42.654;23.314;2023-05-19T08:03:58;94824.47;;;24.33;59.43
31337;BME280;22846;42.654;23.314;2023-05-19T08:06:24;94829.09;;;24.36;59.09
31337;BME280;22846;42.654;23.314;2023-05-19T08:08:49;94833.34;;;24.37;59.48
31337;BME280;22846;42.654;23.314;2023-05-19T08:11:15;94827.13;;;24.37;59.35
31337;BME280;22846;42.654;23.314;2023-05-19T08:13:40;94823.19;;;24.38;58.96
31337;BME280;22846;42.654;23.314;2023-05-19T08:16:06;94822.78;;;24.39;59.43
31337;BME280;22846;42.654;23.314;2023-05-19T08:18:31;94829.78;;;24.40;58.96
31337;BME280;22846;42.654;23.314;2023-05-19T08:20:57;94831.72;;;24.40;59.29
31337;BME280;22846;42.654;23.314;2023-05-19T08:23:22;94831.72;;;24.40;59.22
31337;BME280;22846;42.654;23.314;2023-05-19T08:25:48;94834.00;;;24.41;59.41
31337;BME280;22846;42.654;23.314;2023-05-19T08:28:13;94833.25;;;24.41;59.14
31337;BME280;22846;42.654;23.314;2023-05-19T08:30:39;94825.06;;;24.41;59.33
31337;BME280;22846;42.654;23.314;2023-05-19T08:33:04;94815.66;;;24.42;59.40
31337;BME280;22846;42.654;23.314;2023-05-19T08:35:30;94815.31;;;24.40;59.31
31337;BME280;22846;42.654;23.314;2023-05-19T08:37:55;94818.41;;;24.42;59.27
31337;BME280;22846;42.654;23.314;2023-05-19T08:40:21;94810.97;;;24.42;59.23
31337;BME280;22846;42.654;23.314;2023-05-19T08:42:47;94823.44;;;24.43;59.66
31337;BME280;22846;42.654;23.314;2023-05-19T08:45:14;94814.47;;;24.43;59.45
31337;BME280;22846;42.654;23.314;2023-05-19T08:47:40;94820.72;;;24.43;59.32
31337;BME280;22846;42.654;23.314;2023-05-19T08:50:07;94824.25;;;24.44;59.46
31337;BME280;22846;42.654;23.314;2023-05-19T08:52:50;94810.56;;;24.44;59.79
31337;BME280;22846;42.654;23.314;2023-05-19T08:56:00;94814.06;;;24.44;59.87
31337;BME280;22846;42.654;23.314;2023-05-19T08:58:18;94813.31;;;24.44;59.70
31337;BME280;22846;42.654;23.314;2023-05-19T09:00:45;94818.00;;;24.43;59.57
31337;BME280;22846;42.654;23.314;2023-05-19T09:03:11;94804.34;;;24.43;59.89
31337;BME280;22846;42.654;23.314;2023-05-19T09:05:37;94809.78;;;24.43;59.49
31337;BME280;22846;42.654;23.314;2023-05-19T09:08:03;94809.13;;;24.39;59.69
31337;BME280;22846;42.654;23.314;2023-05-19T09:10:29;94810.56;;;24.44;59.48
31337;BME280;22846;42.654;23.314;2023-05-19T09:12:54;94808.59;;;24.44;59.79
31337;BME280;22846;42.654;23.314;2023-05-19T09:15:21;94812.88;;;24.45;59.81
31337;BME280;22846;42.654;23.314;2023-05-19T09:17:50;94803.47;;;24.46;59.92
31337;BME280;22846;42.654;23.314;2023-05-19T09:20:16;94805.44;;;24.46;59.68
31337;BME280;22846;42.654;23.314;2023-05-19T09:22:45;94801.94;;;24.45;59.83
31337;BME280;22846;42.654;23.314;2023-05-19T09:25:47;94792.56;;;24.46;59.75
31337;BME280;22846;42.654;23.314;2023-05-19T09:28:13;94792.56;;;24.46;59.76
31337;BME280;22846;42.654;23.314;2023-05-19T09:30:38;94793.31;;;24.47;60.17
31337;BME280;22846;42.654;23.314;2023-05-19T09:33:04;94789.81;;;24.46;60.05
31337;BME280;22846;42.654;23.314;2023-05-19T09:35:34;94799.56;;;24.47;59.98
31337;BME280;22846;42.654;23.314;2023-05-19T09:38:00;94793.31;;;24.47;59.99
31337;BME280;22846;42.654;23.314;2023-05-19T09:40:29;94796.03;;;24.47;60.29
31337;BME280;22846;42.654;23.314;2023-05-19T09:42:56;94793.31;;;24.47;59.93
31337;BME280;22846;42.654;23.314;2023-05-19T09:45:21;94782.47;;;24.43;59.82
31337;BME280;22846;42.654;23.314;2023-05-19T09:47:47;94787.09;;;24.46;59.72
31337;BME280;22846;42.654;23.314;2023-05-19T09:50:12;94785.88;;;24.47;60.02
31337;BME280;22846;42.654;23.314;2023-05-19T09:52:41;94796.81;;;24.47;59.58
31337;BME280;22846;42.654;23.314;2023-05-19T09:55:09;94793.31;;;24.47;59.46
31337;BME280;22846;42.654;23.314;2023-05-19T09:57:35;94788.63;;;24.47;60.01
31337;BME280;22846;42.654;23.314;2023-05-19T10:00:06;94788.63;;;24.47;60.09
31337;BME280;22846;42.654;23.314;2023-05-19T10:02:45;94782.72;;;24.49;60.22
31337;BME280;22846;42.654;23.314;2023-05-19T10:05:13;94780.41;;;24.47;59.57
31337;BME280;22846;42.654;23.314;2023-05-19T10:07:43;94778.44;;;24.48;60.21
31337;BME280;22846;42.654;23.314;2023-05-19T10:10:11;94777.25;;;24.49;60.07
31337;BME280;22846;42.654;23.314;2023-05-19T10:12:38;94781.97;;;24.48;59.92
31337;BME280;22846;42.654;23.314;2023-05-19T10:15:11;94782.72;;;24.49;60.21
31337;BME280;22846;42.654;23.314;2023-05-19T10:17:38;94771.78;;;24.49;59.65
31337;BME280;22846;42.654;23.314;2023-05-19T10:20:15;94771.78;;;24.49;59.94
31337;BME280;22846;42.654;23.314;2023-05-19T10:22:42;94767.84;;;24.50;59.39
31337;BME280;22846;42.654;23.314;2023-05-19T10:25:09;94769.84;;;24.49;59.56
31337;BME280;22846;42.654;23.314;2023-05-19T10:27:41;94764.38;;;24.49;59.49
31337;BME280;22846;42.654;23.314;2023-05-19T10:30:20;94776.81;;;24.50;59.68
31337;BME280;22846;42.654;23.314;2023-05-19T10:32:46;94768.94;;;24.52;59.19
31337;BME280;22846;42.654;23.314;2023-05-19T10:40:36;94761.94;;;24.51;59.24
31337;BME280;22846;42.654;23.314;2023-05-19T10:43:23;94761.94;;;24.51;59.44
31337;BME280;22846;42.654;23.314;2023-05-19T10:45:53;94750.25;;;24.51;59.66
31337;BME280;22846;42.654;23.314;2023-05-19T10:48:20;94751.03;;;24.51;59.14
31337;BME280;22846;42.654;23.314;2023-05-19T10:50:46;94749.47;;;24.50;59.43
31337;BME280;22846;42.654;23.314;2023-05-19T10:53:15;94754.19;;;24.50;58.97
31337;BME280;22846;42.654;23.314;2023-05-19T10:55:55;94740.53;;;24.50;59.14
31337;BME280;22846;42.654;23.314;2023-05-19T11:01:13;94748.72;;;24.50;59.59
31337;BME280;22846;42.654;23.314;2023-05-19T11:08:45;94747.97;;;24.49;59.33
31337;BME280;22846;42.654;23.314;2023-05-19T11:11:15;94749.47;;;24.50;59.52
31337;BME280;22846;42.654;23.314;2023-05-19T11:14:07;94742.06;;;24.51;59.48
31337;BME280;22846;42.654;23.314;2023-05-19T11:16:35;94736.59;;;24.51;59.39
31337;BME280;22846;42.654;23.314;2023-05-19T11:19:01;94744.34;;;24.52;59.19
31337;BME280;22846;42.654;23.314;2023-05-19T11:21:48;94738.56;;;24.50;58.93
31337;BME280;22846;42.654;23.314;2023-05-19T11:26:57;94734.22;;;24.53;59.47
31337;BME280;22846;42.654;23.314;2023-05-19T11:29:23;94727.97;;;24.52;59.15
31337;BME280;22846;42.654;23.314;2023-05-19T11:31:48;94735.75;;;24.54;59.45
31337;BME280;22846;42.654;23.314;2023-05-19T11:34:16;94730.28;;;24.54;59.28
31337;BME280;22846;42.654;23.314;2023-05-19T11:36:41;94724.91;;;24.50;59.04
31337;BME280;22846;42.654;23.314;2023-05-19T11:39:07;94715.19;;;24.49;58.98
31337;BME280;22846;42.654;23.314;2023-05-19T11:41:37;94725.22;;;24.52;59.29
31337;BME280;22846;42.654;23.314;2023-05-19T11:44:08;94732.69;;;24.52;58.98
31337;BME280;22846;42.654;23.314;2023-05-19T11:46:34;94729.50;;;24.53;58.96
31337;BME280;22846;42.654;23.314;2023-05-19T11:48:59;94743.16;;;24.53;59.22
31337;BME280;22846;42.654;23.314;2023-05-19T11:51:26;94758.47;;;24.51;59.35
31337;BME280;22846;42.654;23.314;2023-05-19T11:53:52;94770.59;;;24.50;59.23
31337;BME280;22846;42.654;23.314;2023-05-19T11:56:18;94788.19;;;24.49;59.00
31337;BME280;22846;42.654;23.314;2023-05-19T11:58:45;94789.38;;;24.48;59.03
31337;BME280;22846;42.654;23.314;2023-05-19T12:01:11;94785.09;;;24.47;58.61
31337;BME280;22846;42.654;23.314;2023-05-19T12:03:36;94781.63;;;24.46;59.12
31337;BME280;22846;42.654;23.314;2023-05-19T12:06:02;94784.00;;;24.44;58.96
31337;BME280;22846;42.654;23.314;2023-05-19T12:08:28;94804.34;;;24.43;58.97
31337;BME280;22846;42.654;23.314;2023-05-19T12:10:54;94820.34;;;24.41;58.91
31337;BME280;22846;42.654;23.314;2023-05-19T12:13:20;94812.16;;;24.41;58.65
31337;BME280;22846;42.654;23.314;2023-05-19T12:15:46;94812.59;;;24.40;58.66
31337;BME280;22846;42.654;23.314;2023-05-19T12:18:14;94823.19;;;24.38;58.45
31337;BME280;22846;42.654;23.314;2023-05-19T12:20:39;94829.44;;;24.38;58.52
31337;BME280;22846;42.654;23.314;2023-05-19T12:23:05;94836.09;;;24.37;58.68
31337;BME280;22846;42.654;23.314;2023-05-19T12:25:31;94831.81;;;24.36;58.31
31337;BME280;22846;42.654;23.314;2023-05-19T12:27:58;94829.53;;;24.35;57.99
31337;BME280;22846;42.654;23.314;2023-05-19T12:30:28;94824.47;;;24.33;58.09
31337;BME280;22846;42.654;23.314;2023-05-19T12:32:54;94824.47;;;24.33;58.63
31337;BME280;22846;42.654;23.314;2023-05-19T12:35:25;94813.56;;;24.33;58.15
31337;BME280;22846;42.654;23.314;2023-05-19T12:37:51;94810.81;;;24.33;58.33
31337;BME280;22846;42.654;23.314;2023-05-19T12:40:17;94802.63;;;24.33;58.39
31337;BME280;22846;42.654;23.314;2023-05-19T12:42:46;94807.34;;;24.33;57.96
31337;BME280;22846;42.654;23.314;2023-05-19T12:45:12;94791.81;;;24.30;58.50
31337;BME280;22846;42.654;23.314;2023-05-19T12:47:38;94793.69;;;24.33;58.25
31337;BME280;22846;42.654;23.314;2023-05-19T12:50:10;94783.19;;;24.31;57.90
31337;BME280;22846;42.654;23.314;2023-05-19T12:52:43;94770.41;;;24.28;58.04
31337;BME280;22846;42.654;23.314;2023-05-19T12:55:09;94775.00;;;24.31;58.11
31337;BME280;22846;42.654;23.314;2023-05-19T12:57:36;94761.34;;;24.31;57.86
31337;BME280;22846;42.654;23.314;2023-05-19T13:00:16;94746.25;;;24.27;57.87
31337;BME280;22846;42.654;23.314;2023-05-19T13:05:33;94762.53;;;24.30;57.56
31337;BME280;22846;42.654;23.314;2023-05-19T13:08:00;94749.63;;;24.31;57.81
31337;BME280;22846;42.654;23.314;2023-05-19T13:10:27;94746.16;;;24.30;57.68
31337;BME280;22846;42.654;23.314;2023-05-19T13:12:53;94747.69;;;24.31;57.89
31337;BME280;22846;42.654;23.314;2023-05-19T13:15:22;94740.69;;;24.30;58.21
31337;BME280;22846;42.654;23.314;2023-05-19T13:17:48;94749.31;;;24.29;53.62
31337;BME280;22846;42.654;23.314;2023-05-19T13:20:14;94736.06;;;24.15;48.11
31337;BME280;22846;42.654;23.314;2023-05-19T13:22:39;94736.69;;;24.06;48.98
31337;BME280;22846;42.654;23.314;2023-05-19T13:25:05;94743.00;;;24.03;51.16